Time;durP1;ratioP1;P1;durP2;ratioP2;P2;SDS_P1;SDS_P2;PMS_P1;PMS_P2;Temp;Humidity;BMP_temperature;BMP_pressure;BME280_temperature;BME280_humidity;BME280_pressure;Samples;Min_cycle;Max_cycle;Signal;HPM_P1;HPM_P2
2021/08/02 00:01:30;;;;;;;20.17;13.00;;;;;;;21.16;72.88;100198.71;1656788;85;21019;-41
2021/08/02 00:04:09;;;;;;;30.48;13.68;;;;;;;21.14;72.75;100196.66;1684383;85;20996;-40
2021/08/02 00:06:51;;;;;;;29.00;14.35;;;;;;;21.12;73.00;100199.01;1684036;85;20983;-41
2021/08/02 00:13:34;;;;;;;34.67;16.17;;;;;;;21.05;73.24;100206.45;1692910;84;21501;-41
2021/08/02 00:16:06;;;;;;;39.53;15.58;;;;;;;21.01;73.70;100204.53;1684054;85;21023;-40
2021/08/02 00:18:34;;;;;;;50.90;16.42;;;;;;;20.95;74.11;100207.54;1686561;84;21004;-41
2021/08/02 00:21:04;;;;;;;34.20;15.63;;;;;;;20.90;74.20;100205.23;1703467;83;20928;-40
2021/08/02 00:23:31;;;;;;;59.70;17.20;;;;;;;20.85;74.32;100203.39;1701041;83;21233;-40
2021/08/02 00:26:01;;;;;;;45.88;15.95;;;;;;;20.79;74.58;100211.62;1688163;83;21013;-41
2021/08/02 00:28:29;;;;;;;63.40;18.75;;;;;;;20.72;74.84;100215.15;1683926;85;20984;-40
2021/08/02 00:30:56;;;;;;;71.77;17.57;;;;;;;20.66;75.28;100221.64;1684074;85;21032;-41
2021/08/02 00:33:24;;;;;;;30.60;15.72;;;;;;;20.65;75.92;100229.61;1681713;83;21039;-40
2021/08/02 00:36:08;;;;;;;47.70;16.45;;;;;;;20.62;76.82;100228.05;1684207;84;21971;-40
2021/08/02 00:56:04;;;;;;;111.83;19.20;;;;;;;20.49;78.59;100233.70;1701759;84;20917;-41
2021/08/02 00:58:32;;;;;;;91.35;15.70;;;;;;;20.46;78.41;100237.84;1699189;83;21329;-41
2021/08/02 01:01:00;;;;;;;87.37;15.20;;;;;;;20.46;77.79;100232.58;1684095;85;21035;-41
2021/08/02 01:03:30;;;;;;;50.60;13.30;;;;;;;20.49;76.92;100223.19;1658511;85;20995;-40
2021/08/02 01:05:58;;;;;;;47.62;11.55;;;;;;;20.51;76.32;100218.67;1700271;84;21147;-40
2021/08/02 01:08:28;;;;;;;56.42;12.43;;;;;;;20.55;76.25;100221.47;1683727;84;21074;-41
2021/08/02 01:11:02;;;;;;;63.42;13.38;;;;;;;20.56;75.90;100221.02;1720856;83;21553;-40
2021/08/02 01:13:34;;;;;;;31.75;12.63;;;;;;;20.56;75.75;100216.58;1693567;83;20996;-40
2021/08/02 01:16:04;;;;;;;35.13;11.40;;;;;;;20.55;76.03;100219.33;1741288;82;21960;-40
2021/08/02 01:18:33;;;;;;;48.40;12.30;;;;;;;20.48;76.07;100226.30;1740152;82;21099;-40
2021/08/02 01:21:07;;;;;;;48.28;11.83;;;;;;;20.45;76.31;100230.90;1732632;82;21510;-40
2021/08/02 01:23:36;;;;;;;;;;;;;;;20.42;76.70;100232.41;1735192;82;20964;-40
2021/08/02 01:26:44;;;;;;;38.50;11.85;;;;;;;20.39;76.52;100232.98;1743707;82;20172;-40
2021/08/02 01:30:09;;;;;;;45.88;11.12;;;;;;;20.37;76.63;100231.38;1741283;82;21041;-40
2021/08/02 01:32:35;;;;;;;45.55;10.98;;;;;;;20.36;76.49;100227.92;1732484;82;21070;-40
2021/08/02 01:35:04;;;;;;;42.23;10.45;;;;;;;20.37;76.37;100224.36;1714923;82;21529;-40
2021/08/02 01:37:32;;;;;;;33.53;10.38;;;;;;;20.39;76.04;100225.09;1749157;81;21002;-40
2021/08/02 01:40:00;;;;;;;30.85;9.83;;;;;;;20.42;75.49;100220.09;1748389;81;20983;-40
2021/08/02 01:42:28;;;;;;;41.48;10.15;;;;;;;20.48;75.13;100218.42;1749089;82;21002;-40
2021/08/02 01:44:55;;;;;;;51.63;11.00;;;;;;;20.54;74.65;100222.41;1746414;81;21860;-40
2021/08/02 01:47:54;;;;;;;29.30;8.45;;;;;;;20.58;74.42;100217.81;1748691;81;20948;-41
2021/08/02 01:50:59;;;;;;;22.73;8.63;;;;;;;20.63;73.85;100224.92;1733175;81;21015;-40
2021/08/02 01:54:08;;;;;;;15.50;9.00;;;;;;;20.70;73.42;100218.32;1732363;82;20913;-41
2021/08/02 01:56:54;;;;;;;21.23;7.58;;;;;;;20.75;73.05;100214.95;1711747;83;20975;-40
2021/08/02 01:59:31;;;;;;;83.22;10.50;;;;;;;20.82;72.83;100223.28;1685649;83;24402;-41
2021/08/02 02:02:07;;;;;;;77.42;12.40;;;;;;;20.85;72.73;100216.99;1711540;83;20956;-40
2021/08/02 02:04:54;;;;;;;53.98;13.03;;;;;;;20.85;72.67;100210.42;1723694;82;21506;-40
2021/08/02 02:07:22;;;;;;;44.63;10.88;;;;;;;20.87;72.82;100214.65;1706966;82;21028;-40
2021/08/02 02:09:50;;;;;;;27.93;8.75;;;;;;;20.87;72.66;100221.22;1731648;82;20996;-38
2021/08/02 02:12:18;;;;;;;30.45;7.62;;;;;;;20.89;72.54;100219.33;1732490;82;21161;-39
2021/08/02 02:14:45;;;;;;;25.25;7.65;;;;;;;20.90;72.65;100214.90;1730536;82;20920;-40
2021/08/02 02:17:13;;;;;;;43.87;9.03;;;;;;;20.90;72.70;100215.75;1742948;82;21692;-39
2021/08/02 02:19:40;;;;;;;23.30;8.33;;;;;;;20.92;72.94;100220.44;1742873;82;20940;-40
2021/08/02 02:22:09;;;;;;;59.95;9.25;;;;;;;20.91;72.96;100216.13;1746538;82;20968;-39
2021/08/02 02:24:36;;;;;;;55.30;9.23;;;;;;;20.92;72.87;100214.32;1747443;80;21140;-40
2021/08/02 02:27:05;;;;;;;46.98;9.90;;;;;;;20.91;73.19;100210.01;1746958;82;20941;-39
2021/08/02 02:29:33;;;;;;;42.83;9.43;;;;;;;20.87;73.44;100212.02;1748368;82;21015;-39
2021/08/02 02:32:00;;;;;;;52.67;11.20;;;;;;;20.86;73.91;100214.28;1719115;82;21051;-39
2021/08/02 02:34:29;;;;;;;52.67;10.70;;;;;;;20.86;74.51;100213.42;1747055;82;20995;-40
2021/08/02 02:36:55;;;;;;;38.53;9.75;;;;;;;20.86;74.69;100219.54;1742996;82;21869;-40
2021/08/02 02:39:22;;;;;;;25.40;8.58;;;;;;;20.81;75.32;100222.91;1737710;82;21023;-39
2021/08/02 02:41:49;;;;;;;17.48;8.65;;;;;;;20.73;76.21;100228.67;1732210;82;20989;-40
2021/08/02 02:44:18;;;;;;;17.92;8.18;;;;;;;20.64;76.60;100229.24;1742812;81;20971;-39
2021/08/02 02:46:46;;;;;;;14.78;8.93;;;;;;;20.57;77.28;100229.27;1743034;82;20983;-39
2021/08/02 02:49:17;;;;;;;15.10;8.10;;;;;;;20.50;77.72;100233.62;1743126;82;21171;-39
2021/08/02 02:51:44;;;;;;;12.78;8.18;;;;;;;20.46;78.08;100228.64;1743199;82;21537;-40
2021/08/02 02:54:11;;;;;;;15.32;7.85;;;;;;;20.42;78.34;100227.98;1740900;82;20924;-40
2021/08/02 02:56:38;;;;;;;21.45;9.13;;;;;;;20.39;78.76;100228.18;1719140;82;20932;-40
2021/08/02 02:59:04;;;;;;;22.42;7.75;;;;;;;20.38;79.06;100227.36;1718959;82;21042;-39
2021/08/02 03:01:39;;;;;;;13.80;7.40;;;;;;;20.37;79.25;100225.67;1740339;82;21117;-39
2021/08/02 03:04:07;;;;;;;9.08;7.47;;;;;;;20.36;79.52;100221.81;1736527;82;21183;-39
2021/08/02 03:06:34;;;;;;;15.65;8.25;;;;;;;20.35;79.64;100222.30;1708332;81;21533;-40
2021/08/02 03:09:02;;;;;;;12.55;7.50;;;;;;;20.35;79.49;100226.23;1707172;83;20972;-39
2021/08/02 03:11:30;;;;;;;12.63;7.10;;;;;;;20.39;79.33;100232.12;1697938;84;21037;-40
2021/08/02 03:13:58;;;;;;;12.60;8.08;;;;;;;20.45;79.33;100236.16;1738634;81;23014;-39
2021/08/02 03:16:24;;;;;;;22.20;8.43;;;;;;;20.51;79.61;100246.27;1750931;82;22128;-39
2021/08/02 03:18:52;;;;;;;76.67;10.93;;;;;;;20.56;79.94;100241.56;1751025;82;21019;-39
2021/08/02 03:21:18;;;;;;;52.93;9.55;;;;;;;20.62;80.24;100233.30;1753579;81;21012;-39
2021/08/02 03:24:10;;;;;;;57.23;8.95;;;;;;;20.68;80.28;100234.67;1753135;80;21014;-40
2021/08/02 03:26:42;;;;;;;56.63;10.08;;;;;;;20.76;80.27;100235.49;1751043;82;21150;-39
2021/08/02 03:29:26;;;;;;;40.35;11.00;;;;;;;20.86;79.84;100235.77;1750704;81;20963;-40
2021/08/02 03:31:57;;;;;;;49.38;9.25;;;;;;;20.96;79.69;100236.39;1753813;81;21564;-39
2021/08/02 03:34:27;;;;;;;28.32;8.33;;;;;;;21.12;79.65;100249.00;1752320;81;21002;-39
2021/08/02 03:36:54;;;;;;;21.12;7.75;;;;;;;21.22;79.64;100249.61;1751106;81;21022;-40
2021/08/02 03:39:23;;;;;;;25.35;6.92;;;;;;;21.33;78.79;100254.61;1751616;81;21556;-39
2021/08/02 03:41:50;;;;;;;35.78;9.23;;;;;;;21.47;78.32;100253.23;1751829;81;20992;-40
2021/08/02 03:44:18;;;;;;;26.93;8.13;;;;;;;21.60;77.81;100254.55;1691193;83;20964;-40
2021/08/02 03:46:46;;;;;;;27.93;7.10;;;;;;;21.75;77.70;100250.54;1719649;83;20961;-40
2021/08/02 03:49:12;;;;;;;35.33;7.25;;;;;;;21.89;76.93;100252.22;1750467;81;20951;-40
2021/08/02 03:51:55;;;;;;;46.77;8.53;;;;;;;22.01;76.76;100251.34;1754316;81;21326;-39
2021/08/02 03:54:22;;;;;;;55.00;10.08;;;;;;;22.18;76.14;100251.97;1721000;83;21213;-40
2021/08/02 03:56:49;;;;;;;52.98;9.73;;;;;;;22.39;75.37;100251.77;1721160;83;20976;-40
2021/08/02 03:59:16;;;;;;;73.15;11.28;;;;;;;22.66;74.30;100247.25;1749988;81;20932;-40
2021/08/02 04:01:44;;;;;;;70.62;10.05;;;;;;;22.91;73.34;100235.76;1753738;81;20971;-39
2021/08/02 04:04:10;;;;;;;48.87;9.58;;;;;;;23.10;71.53;100234.36;1750213;82;21374;-40
2021/08/02 04:06:37;;;;;;;45.28;8.40;;;;;;;23.31;71.18;100240.34;1741043;81;20961;-40
2021/08/02 04:09:06;;;;;;;41.40;7.72;;;;;;;23.53;70.83;100244.84;1719600;83;21020;-40
2021/08/02 04:11:32;;;;;;;47.78;7.60;;;;;;;23.79;70.52;100257.34;1719794;83;21283;-39
2021/08/02 04:13:59;;;;;;;35.25;7.40;;;;;;;24.03;69.85;100263.03;1717639;83;20998;-39
2021/08/02 04:16:26;;;;;;;20.00;5.85;;;;;;;24.21;68.56;100257.27;1726170;82;21767;-40
2021/08/02 04:18:53;;;;;;;30.45;7.00;;;;;;;24.37;68.12;100247.13;1743088;82;20932;-39
2021/08/02 04:21:19;;;;;;;16.15;6.00;;;;;;;24.53;68.05;100249.40;1744795;82;20976;-40
2021/08/02 04:23:46;;;;;;;26.68;7.55;;;;;;;24.71;67.97;100254.14;1748336;80;21108;-40
2021/08/02 04:26:12;;;;;;;40.00;7.58;;;;;;;24.82;66.82;100253.30;1742175;82;21572;-40
2021/08/02 04:28:40;;;;;;;17.95;6.60;;;;;;;24.87;66.65;100255.07;1743002;82;21193;-40
2021/08/02 04:31:09;;;;;;;19.80;7.00;;;;;;;24.94;66.06;100251.44;1743078;82;20963;-40
2021/08/02 04:33:35;;;;;;;20.10;7.17;;;;;;;24.95;66.06;100248.68;1735732;82;21000;-40
2021/08/02 04:36:04;;;;;;;66.28;9.73;;;;;;;24.98;65.24;100241.45;1748518;82;21529;-39
2021/08/02 04:38:31;;;;;;;44.90;8.33;;;;;;;24.93;65.60;100234.73;1748527;82;20987;-40
2021/08/02 04:40:58;;;;;;;17.48;6.40;;;;;;;24.99;66.13;100242.62;1748575;82;21154;-40
2021/08/02 04:43:25;;;;;;;17.90;6.05;;;;;;;25.16;65.69;100242.58;1745762;82;20940;-40
2021/08/02 04:45:51;;;;;;;17.92;6.10;;;;;;;25.26;65.51;100241.29;1743653;82;21047;-40
2021/08/02 04:48:17;;;;;;;12.98;5.75;;;;;;;25.45;65.21;100240.59;1747867;82;20953;-39
2021/08/02 04:50:45;;;;;;;13.88;5.72;;;;;;;25.60;64.83;100234.50;1732449;81;20882;-40
2021/08/02 04:53:11;;;;;;;11.38;5.50;;;;;;;25.79;64.53;100243.02;1736746;82;21106;-40
2021/08/02 04:55:39;;;;;;;12.50;5.58;;;;;;;26.03;64.36;100239.20;1713158;82;20937;-40
2021/08/02 04:58:05;;;;;;;20.57;5.53;;;;;;;26.25;63.73;100223.59;1732431;82;20984;-40
2021/08/02 05:00:32;;;;;;;6.67;5.33;;;;;;;26.52;63.53;100228.77;1732291;82;21498;-40
2021/08/02 05:03:00;;;;;;;10.90;5.05;;;;;;;26.81;63.04;100223.95;1714545;82;21459;-40
2021/08/02 05:05:28;;;;;;;15.85;5.08;;;;;;;26.95;62.42;100229.36;1740318;82;21432;-40
2021/08/02 05:07:56;;;;;;;19.05;5.80;;;;;;;27.11;62.16;100234.56;1742849;82;20968;-40
2021/08/02 05:10:23;;;;;;;15.60;5.53;;;;;;;27.36;61.67;100229.16;1743053;82;20940;-40
2021/08/02 05:12:51;;;;;;;19.65;5.87;;;;;;;27.57;60.42;100232.14;1742866;82;21030;-40
2021/08/02 05:15:18;;;;;;;18.27;5.87;;;;;;;27.67;60.50;100224.13;1745850;82;20951;-40
2021/08/02 05:17:44;;;;;;;13.13;5.78;;;;;;;27.77;59.92;100231.56;1752781;81;22257;-41
2021/08/02 05:20:12;;;;;;;13.53;5.60;;;;;;;27.85;59.93;100234.83;1753858;81;20964;-38
2021/08/02 05:22:38;;;;;;;11.08;5.40;;;;;;;27.93;59.78;100223.47;1716764;82;20996;-40
2021/08/02 05:25:06;;;;;;;9.45;5.25;;;;;;;28.05;59.97;100220.94;1733796;82;20963;-40
2021/08/02 05:27:33;;;;;;;16.65;5.22;;;;;;;28.19;59.71;100216.15;1752273;81;20932;-40
2021/08/02 05:29:59;;;;;;;8.68;5.25;;;;;;;28.33;59.21;100218.79;1754311;81;21045;-40
2021/08/02 05:32:25;;;;;;;13.22;5.28;;;;;;;28.37;59.17;100217.50;1722488;82;20959;-40
2021/08/02 05:34:52;;;;;;;10.70;4.87;;;;;;;28.30;59.55;100216.44;1750967;82;20956;-40
2021/08/02 05:37:19;;;;;;;17.23;5.83;;;;;;;28.36;59.66;100217.97;1750880;81;21525;-39
2021/08/02 05:39:45;;;;;;;14.35;5.95;;;;;;;28.44;59.75;100215.90;1753246;81;21220;-40
2021/08/02 05:42:11;;;;;;;9.50;5.87;;;;;;;28.58;59.61;100214.53;1741680;81;21872;-40
2021/08/02 05:44:38;;;;;;;9.65;5.72;;;;;;;28.70;59.05;100214.31;1750933;81;21510;-39
2021/08/02 05:47:07;;;;;;;17.20;5.40;;;;;;;28.73;58.66;100216.67;1750929;81;21466;-40
2021/08/02 05:49:33;;;;;;;21.80;6.15;;;;;;;28.80;58.71;100207.95;1751130;81;21722;-39
2021/08/02 05:52:00;;;;;;;19.85;5.75;;;;;;;28.91;58.93;100214.84;1751218;82;20926;-40
2021/08/02 05:54:29;;;;;;;34.20;6.67;;;;;;;29.04;58.44;100202.96;1751945;81;20967;-40
2021/08/02 05:56:55;;;;;;;28.25;5.60;;;;;;;29.13;58.94;100203.86;1753912;81;20976;-40
2021/08/02 05:59:22;;;;;;;15.70;4.97;;;;;;;29.18;58.63;100202.41;1750971;81;21010;-39
2021/08/02 06:01:49;;;;;;;20.90;4.95;;;;;;;29.26;58.23;100200.27;1750983;82;20940;-40
2021/08/02 06:04:16;;;;;;;18.60;5.62;;;;;;;29.32;58.55;100197.48;1751114;81;20932;-40
2021/08/02 06:06:44;;;;;;;24.92;5.67;;;;;;;29.36;58.41;100209.49;1745784;81;21138;-40
2021/08/02 06:09:11;;;;;;;25.00;6.55;;;;;;;29.33;57.79;100204.48;1710829;82;20999;-40
2021/08/02 06:11:40;;;;;;;40.83;6.80;;;;;;;29.32;58.16;100208.99;1743501;81;20900;-39
2021/08/02 06:14:06;;;;;;;47.08;6.62;;;;;;;29.25;58.64;100208.77;1751895;81;20979;-40
2021/08/02 06:16:34;;;;;;;27.40;6.35;;;;;;;29.24;59.04;100209.77;1743040;82;20963;-41
2021/08/02 06:19:02;;;;;;;18.85;6.42;;;;;;;29.38;58.38;100212.83;1695920;82;22958;-41
2021/08/02 06:21:29;;;;;;;33.18;5.83;;;;;;;29.44;58.74;100206.92;1717799;82;20925;-40
2021/08/02 06:23:55;;;;;;;24.07;5.65;;;;;;;29.49;57.88;100207.77;1743163;81;20975;-40
2021/08/02 06:26:22;;;;;;;27.10;6.17;;;;;;;29.44;57.43;100206.92;1736943;82;21050;-40
2021/08/02 06:28:50;;;;;;;32.05;6.55;;;;;;;29.41;57.85;100211.72;1745262;82;20999;-41
2021/08/02 06:31:19;;;;;;;31.15;5.87;;;;;;;29.39;57.40;100211.84;1743581;82;21153;-41
2021/08/02 06:33:46;;;;;;;51.98;7.83;;;;;;;29.31;58.11;100211.80;1733089;81;21048;-41
2021/08/02 06:36:14;;;;;;;50.28;7.50;;;;;;;29.33;58.49;100205.81;1733227;82;20996;-40
2021/08/02 06:38:42;;;;;;;47.08;7.08;;;;;;;29.35;58.24;100215.81;1711743;82;21031;-40
2021/08/02 06:41:09;;;;;;;37.45;6.15;;;;;;;29.28;57.96;100208.94;1711670;82;21000;-40
2021/08/02 06:43:37;;;;;;;27.60;5.78;;;;;;;29.29;58.69;100203.95;1738425;82;21144;-41
2021/08/02 06:46:06;;;;;;;31.65;6.30;;;;;;;29.43;57.93;100199.92;1714044;82;20947;-41
2021/08/02 06:48:34;;;;;;;22.13;6.10;;;;;;;29.50;56.29;100200.10;1742922;82;21041;-40
2021/08/02 06:51:01;;;;;;;22.37;5.37;;;;;;;29.54;56.80;100199.64;1742996;82;22265;-41
2021/08/02 06:53:27;;;;;;;30.97;6.20;;;;;;;29.59;56.94;100197.84;1718994;82;21027;-41
2021/08/02 06:55:54;;;;;;;39.05;6.28;;;;;;;29.66;56.13;100204.67;1708959;83;21023;-40
2021/08/02 06:58:20;;;;;;;32.05;5.72;;;;;;;29.74;54.63;100198.55;1695132;84;20979;-41
2021/08/02 07:00:47;;;;;;;23.62;4.72;;;;;;;29.68;55.18;100196.02;1734387;82;20973;-41
2021/08/02 07:03:13;;;;;;;30.17;5.80;;;;;;;29.73;55.28;100198.22;1738278;81;20912;-41
2021/08/02 07:05:41;;;;;;;17.48;5.22;;;;;;;29.80;55.25;100189.91;1712711;82;20951;-40
2021/08/02 07:08:09;;;;;;;41.18;6.70;;;;;;;29.90;55.03;100191.11;1738868;82;22464;-41
2021/08/02 07:10:35;;;;;;;61.25;7.12;;;;;;;29.96;54.32;100190.48;1742550;82;20980;-41
2021/08/02 07:13:02;;;;;;;44.90;6.42;;;;;;;30.04;54.07;100186.53;1742866;81;20995;-39
2021/08/02 07:15:30;;;;;;;41.10;6.20;;;;;;;30.14;53.26;100185.54;1742078;82;20912;-40
2021/08/02 07:17:57;;;;;;;28.52;5.50;;;;;;;30.24;52.47;100185.73;1743138;82;21008;-40
2021/08/02 07:20:24;;;;;;;43.48;7.30;;;;;;;30.31;52.73;100175.73;1734935;82;21075;-40
2021/08/02 07:22:51;;;;;;;38.35;6.65;;;;;;;30.46;53.06;100180.77;1732395;82;20941;-40
2021/08/02 07:25:18;;;;;;;22.52;5.47;;;;;;;30.57;51.88;100176.08;1733249;82;21021;-40
2021/08/02 07:30:45;;;;;;;52.45;6.58;;;;;;;30.75;51.14;100181.31;1814424;79;22691;-40
2021/08/02 07:33:11;;;;;;;41.60;6.47;;;;;;;30.85;50.30;100188.64;1784386;80;20995;-40
2021/08/02 07:35:38;;;;;;;26.85;6.40;;;;;;;30.93;50.06;100178.45;1779391;80;21162;-40
2021/08/02 07:38:04;;;;;;;48.13;5.95;;;;;;;30.94;50.13;100173.45;1781100;80;22190;-40
2021/08/02 07:40:31;;;;;;;24.50;4.55;;;;;;;31.04;50.08;100172.75;1786128;80;21580;-42
2021/08/02 07:42:57;;;;;;;29.15;5.42;;;;;;;31.16;50.04;100175.08;1788034;80;20959;-41
2021/08/02 07:45:25;;;;;;;29.82;5.45;;;;;;;31.26;49.12;100179.75;1787216;80;20932;-41
2021/08/02 07:47:51;;;;;;;39.53;6.05;;;;;;;31.36;48.91;100174.22;1786440;80;21121;-40
2021/08/02 07:50:18;;;;;;;28.98;4.42;;;;;;;31.56;48.44;100169.30;1786998;80;20908;-40
2021/08/02 07:52:44;;;;;;;76.97;8.58;;;;;;;31.77;46.89;100169.23;1785402;80;20927;-40
2021/08/02 07:55:12;;;;;;;26.65;4.65;;;;;;;31.90;48.21;100179.37;1787889;80;20967;-41
2021/08/02 07:57:39;;;;;;;25.40;4.83;;;;;;;31.97;47.99;100181.70;1787249;80;21478;-40
2021/08/02 08:00:07;;;;;;;18.73;4.50;;;;;;;32.08;47.59;100175.94;1781412;80;21184;-41
2021/08/02 08:02:36;;;;;;;17.10;4.47;;;;;;;32.21;45.64;100172.67;1734783;80;21015;-42
2021/08/02 08:05:03;;;;;;;35.00;5.67;;;;;;;32.21;47.11;100179.86;1779304;80;20956;-41
2021/08/02 08:07:29;;;;;;;25.27;4.60;;;;;;;32.23;46.79;100172.51;1779401;79;21551;-41
2021/08/02 08:10:03;;;;;;;14.45;4.37;;;;;;;32.30;46.37;100168.10;1745959;80;21529;-39
2021/08/02 08:12:30;;;;;;;20.90;4.53;;;;;;;32.36;46.12;100160.72;1779760;80;21076;-40
2021/08/02 08:14:56;;;;;;;20.62;4.53;;;;;;;32.50;45.10;100167.14;1780176;80;20975;-40
2021/08/02 08:17:22;;;;;;;21.33;4.28;;;;;;;32.47;45.74;100169.36;1788170;80;20959;-40
2021/08/02 08:19:49;;;;;;;20.70;4.17;;;;;;;32.38;46.83;100166.72;1783505;80;21509;-40
2021/08/02 08:22:15;;;;;;;17.10;4.85;;;;;;;32.38;46.07;100154.67;1747916;80;21532;-40
2021/08/02 08:24:43;;;;;;;14.93;4.30;;;;;;;32.40;47.79;100154.51;1765127;80;21491;-40
2021/08/02 08:27:10;;;;;;;18.70;4.25;;;;;;;32.54;45.85;100144.86;1662361;84;21042;-40
2021/08/02 08:29:36;;;;;;;17.32;4.72;;;;;;;32.55;46.53;100134.47;1677348;84;21011;-40
2021/08/02 08:32:04;;;;;;;33.15;4.92;;;;;;;32.78;46.52;100146.47;1638435;85;21541;-40
2021/08/02 08:34:31;;;;;;;21.77;5.15;;;;;;;33.01;45.53;100129.53;1655349;85;21506;-40
2021/08/02 08:36:58;;;;;;;17.98;4.53;;;;;;;33.19;44.38;100129.68;1658240;86;22402;-40
2021/08/02 08:39:24;;;;;;;17.52;4.37;;;;;;;33.28;43.90;100122.37;1681805;85;21022;-40
2021/08/02 08:41:51;;;;;;;13.75;4.72;;;;;;;33.25;43.72;100124.91;1685898;85;20980;-40
2021/08/02 08:44:20;;;;;;;12.35;4.25;;;;;;;33.33;42.78;100114.60;1683333;84;20973;-40
2021/08/02 08:46:46;;;;;;;31.52;5.35;;;;;;;33.34;43.82;100116.27;1670562;84;21078;-40
2021/08/02 08:49:13;;;;;;;15.45;4.67;;;;;;;33.49;43.84;100109.56;1733900;81;21781;-40
2021/08/02 08:51:39;;;;;;;13.20;4.30;;;;;;;33.71;43.51;100113.11;1742357;81;21485;-41
2021/08/02 08:54:06;;;;;;;20.77;5.05;;;;;;;33.89;42.90;100112.71;1731780;82;21603;-41
2021/08/02 08:56:33;;;;;;;12.68;4.22;;;;;;;33.87;42.24;100103.17;1743063;82;20901;-41
2021/08/02 08:58:59;;;;;;;41.30;5.37;;;;;;;33.90;42.01;100106.32;1746191;82;20987;-40
2021/08/02 09:01:30;;;;;;;23.18;4.80;;;;;;;34.02;42.82;100105.83;1731471;82;21108;-40
2021/08/02 09:03:58;;;;;;;13.98;4.55;;;;;;;33.99;41.60;100104.87;1729303;82;21478;-40
2021/08/02 09:06:25;;;;;;;29.48;4.40;;;;;;;33.69;41.76;100107.11;1739320;82;21035;-41
2021/08/02 09:08:53;;;;;;;28.35;5.30;;;;;;;33.40;42.73;100102.09;1730211;82;21011;-40
2021/08/02 09:11:25;;;;;;;14.63;4.17;;;;;;;33.32;43.33;100094.98;1724734;80;21026;-41
2021/08/02 09:13:54;;;;;;;16.30;4.40;;;;;;;33.40;43.54;100094.05;1733954;82;21110;-41
2021/08/02 09:16:25;;;;;;;16.32;4.03;;;;;;;33.38;44.50;100092.92;1734529;82;21609;-41
2021/08/02 09:19:02;;;;;;;14.13;4.45;;;;;;;33.31;43.08;100094.66;1732219;82;21447;-41
2021/08/02 09:21:50;;;;;;;14.93;4.60;;;;;;;33.32;41.96;100089.62;1733294;82;21518;-41
2021/08/02 09:24:30;;;;;;;13.13;3.98;;;;;;;33.33;42.09;100088.61;1700778;82;21134;-41
2021/08/02 09:26:57;;;;;;;13.75;3.90;;;;;;;33.33;42.79;100089.94;1737497;82;21092;-41
2021/08/02 09:29:31;;;;;;;12.18;4.20;;;;;;;33.45;43.05;100080.94;1727178;82;20987;-41
2021/08/02 09:31:58;;;;;;;8.75;4.42;;;;;;;33.60;41.71;100074.72;1727919;82;21003;-41
2021/08/02 09:34:25;;;;;;;21.23;3.98;;;;;;;33.63;40.72;100067.63;1728152;82;21012;-41
2021/08/02 09:36:57;;;;;;;17.60;4.08;;;;;;;33.52;40.42;100067.13;1728829;82;20929;-41
2021/08/02 09:39:32;;;;;;;18.07;3.98;;;;;;;33.39;41.90;100069.60;1726333;82;21353;-41
2021/08/02 09:42:05;;;;;;;10.23;3.85;;;;;;;33.63;41.96;100055.56;1730315;82;21240;-40
2021/08/02 09:44:32;;;;;;;78.35;7.10;;;;;;;34.06;41.05;100059.64;1728204;82;20992;-42
2021/08/02 09:47:00;;;;;;;46.95;5.17;;;;;;;34.33;39.50;100057.17;1724647;82;21680;-40
2021/08/02 09:49:29;;;;;;;35.23;5.65;;;;;;;34.61;40.28;100050.98;1707912;82;21028;-40
2021/08/02 09:51:56;;;;;;;26.77;4.60;;;;;;;34.86;37.73;100055.05;1684911;82;21058;-40
2021/08/02 09:54:27;;;;;;;34.18;4.67;;;;;;;34.84;37.77;100055.26;1724894;82;21047;-40
2021/08/02 09:56:54;;;;;;;27.35;5.55;;;;;;;34.80;38.66;100054.00;1726017;82;21440;-41
2021/08/02 09:59:20;;;;;;;35.40;5.22;;;;;;;34.95;39.19;100054.69;1700651;82;20980;-41
2021/08/02 10:01:49;;;;;;;64.75;5.83;;;;;;;35.18;36.93;100050.89;1733942;82;21027;-40
2021/08/02 10:04:16;;;;;;;58.23;5.80;;;;;;;35.14;37.22;100052.86;1728356;82;21821;-42
2021/08/02 10:06:43;;;;;;;55.40;5.97;;;;;;;35.14;37.04;100042.92;1703836;82;21503;-41
2021/08/02 10:09:12;;;;;;;20.48;4.50;;;;;;;35.22;36.00;100036.01;1726327;82;21552;-40
2021/08/02 10:11:40;;;;;;;18.30;4.45;;;;;;;35.28;35.87;100033.04;1724892;82;21007;-40
2021/08/02 10:14:07;;;;;;;20.05;4.55;;;;;;;35.33;36.85;100047.23;1716222;82;21609;-39
2021/08/02 10:16:34;;;;;;;38.15;5.15;;;;;;;35.37;36.29;100047.14;1722921;82;21751;-41
2021/08/02 10:19:05;;;;;;;112.03;8.95;;;;;;;35.37;35.04;100041.76;1726355;82;20988;-40
2021/08/02 10:21:47;;;;;;;86.02;7.87;;;;;;;35.44;35.84;100045.82;1722760;82;20897;-40
2021/08/02 10:24:16;;;;;;;54.60;7.03;;;;;;;35.51;36.48;100041.31;1736360;81;20948;-40
2021/08/02 10:26:58;;;;;;;33.73;5.50;;;;;;;35.64;35.34;100035.12;1733174;82;21554;-40
2021/08/02 10:29:36;;;;;;;93.70;7.55;;;;;;;35.70;34.52;100041.56;1733368;82;21697;-41
2021/08/02 10:32:04;;;;;;;49.13;6.40;;;;;;;35.53;35.80;100041.43;1714729;82;21019;-41
2021/08/02 10:34:30;;;;;;;81.32;8.00;;;;;;;35.43;34.67;100046.32;1717454;81;21116;-41
2021/08/02 10:37:04;;;;;;;62.30;6.65;;;;;;;35.47;35.07;100047.56;1670342;84;20980;-41
2021/08/02 10:39:34;;;;;;;50.70;7.05;;;;;;;35.57;34.01;100040.48;1695867;84;20949;-41
2021/08/02 10:42:13;;;;;;;57.95;6.30;;;;;;;35.67;34.67;100042.28;1701571;84;21746;-42
2021/08/02 10:44:39;;;;;;;116.15;8.00;;;;;;;35.85;32.78;100042.72;1668797;84;21614;-40
2021/08/02 10:47:11;;;;;;;91.17;7.53;;;;;;;35.71;32.46;100035.14;1686826;84;20991;-40
2021/08/02 10:49:49;;;;;;;93.22;9.05;;;;;;;35.62;32.92;100038.54;1683108;84;21026;-41
2021/08/02 10:52:27;;;;;;;114.42;10.28;;;;;;;35.51;32.59;100041.31;1681638;84;21024;-40
2021/08/02 10:54:53;;;;;;;68.00;7.17;;;;;;;35.55;33.76;100048.47;1672114;84;21161;-41
2021/08/02 10:57:20;;;;;;;45.67;6.15;;;;;;;35.85;33.60;100046.76;1667691;86;21573;-40
2021/08/02 10:59:47;;;;;;;76.45;7.75;;;;;;;35.78;32.73;100038.66;1676042;84;21612;-39
2021/08/02 11:02:13;;;;;;;150.27;11.25;;;;;;;35.62;33.56;100038.54;1684627;83;21494;-40
2021/08/02 11:04:41;;;;;;;59.18;8.03;;;;;;;35.56;34.09;100042.05;1692405;84;21012;-40
2021/08/02 11:07:08;;;;;;;179.80;12.28;;;;;;;35.45;33.07;100033.50;1695666;84;21161;-40
2021/08/02 11:09:36;;;;;;;99.25;9.70;;;;;;;35.34;33.14;100034.09;1686045;83;21004;-40
2021/08/02 11:12:13;;;;;;;64.05;6.22;;;;;;;35.24;32.64;100027.76;1671271;85;21016;-40
2021/08/02 11:14:50;;;;;;;191.10;14.40;;;;;;;35.46;34.06;100025.73;1668433;84;20960;-41
2021/08/02 11:17:21;;;;;;;67.53;8.33;;;;;;;35.48;33.33;100016.95;1682043;84;21023;-41
2021/08/02 11:19:59;;;;;;;71.07;7.47;;;;;;;35.59;34.42;100011.52;1681183;83;20963;-41
2021/08/02 11:22:26;;;;;;;72.05;8.38;;;;;;;35.90;33.15;100009.28;1678985;84;20968;-41
2021/08/02 11:24:57;;;;;;;34.10;6.72;;;;;;;36.02;31.25;99998.25;1694769;84;21015;-41
2021/08/02 11:27:24;;;;;;;36.77;6.95;;;;;;;36.00;30.70;99985.48;1694624;84;21000;-41
2021/08/02 11:29:53;;;;;;;54.60;7.35;;;;;;;35.87;31.37;99986.81;1686244;84;20979;-41
2021/08/02 11:32:20;;;;;;;49.90;7.83;;;;;;;35.72;32.30;99989.18;1646787;86;22111;-41
2021/08/02 11:34:53;;;;;;;77.72;8.18;;;;;;;35.53;31.64;99981.41;1726511;82;20952;-40
2021/08/02 11:37:22;;;;;;;77.67;9.10;;;;;;;35.23;32.61;99974.48;1711138;82;22101;-40
2021/08/02 11:40:05;;;;;;;63.50;8.05;;;;;;;35.03;32.51;99964.20;1722782;82;20996;-40
2021/08/02 11:42:33;;;;;;;61.58;7.72;;;;;;;34.89;32.15;99961.95;1692910;84;21020;-42
2021/08/02 11:45:02;;;;;;;60.63;7.25;;;;;;;34.80;32.81;99961.30;1706001;82;21137;-41
2021/08/02 11:47:35;;;;;;;117.33;9.65;;;;;;;34.93;32.69;99955.95;1730934;82;20937;-41
2021/08/02 11:50:03;;;;;;;117.35;9.23;;;;;;;35.12;33.27;99955.45;1728215;82;20976;-42
2021/08/02 11:52:29;;;;;;;51.90;7.67;;;;;;;35.45;34.64;99946.61;1714841;82;21052;-41